sensor_id;sensor_type;location;lat;lon;timestamp;P1;durP1;ratioP1;P2;durP2;ratioP2
26656;SDS011;14279;50.010;8.260;2024-01-30T00:00:16;30.40;;;21.20;;
26656;SDS011;14279;50.010;8.260;2024-01-30T00:02:41;37.37;;;21.27;;
26656;SDS011;14279;50.010;8.260;2024-01-30T00:05:08;33.23;;;22.50;;
26656;SDS011;14279;50.010;8.260;2024-01-30T00:07:33;33.23;;;20.80;;
26656;SDS011;14279;50.010;8.260;2024-01-30T00:09:58;36.10;;;22.43;;
26656;SDS011;14279;50.010;8.260;2024-01-30T00:12:24;34.73;;;22.10;;
26656;SDS011;14279;50.010;8.260;2024-01-30T00:14:51;31.90;;;21.10;;
26656;SDS011;14279;50.010;8.260;2024-01-30T00:17:16;32.07;;;20.67;;
26656;SDS011;14279;50.010;8.260;2024-01-30T00:19:42;30.37;;;21.07;;
26656;SDS011;14279;50.010;8.260;2024-01-30T00:22:07;38.23;;;22.30;;
26656;SDS011;14279;50.010;8.260;2024-01-30T00:24:32;34.20;;;22.03;;
26656;SDS011;14279;50.010;8.260;2024-01-30T00:26:58;34.67;;;22.80;;
26656;SDS011;14279;50.010;8.260;2024-01-30T00:29:23;42.60;;;23.73;;
26656;SDS011;14279;50.010;8.260;2024-01-30T00:31:50;34.10;;;21.80;;
26656;SDS011;14279;50.010;8.260;2024-01-30T00:34:15;31.03;;;21.13;;
26656;SDS011;14279;50.010;8.260;2024-01-30T00:36:41;35.10;;;23.17;;
26656;SDS011;14279;50.010;8.260;2024-01-30T00:39:06;37.50;;;23.40;;
26656;SDS011;14279;50.010;8.260;2024-01-30T00:41:34;33.60;;;23.03;;
26656;SDS011;14279;50.010;8.260;2024-01-30T00:43:59;38.43;;;23.60;;
26656;SDS011;14279;50.010;8.260;2024-01-30T00:46:24;35.73;;;23.80;;
26656;SDS011;14279;50.010;8.260;2024-01-30T00:48:50;32.50;;;22.97;;
26656;SDS011;14279;50.010;8.260;2024-01-30T00:51:15;35.00;;;23.40;;
26656;SDS011;14279;50.010;8.260;2024-01-30T00:53:40;40.73;;;25.07;;
26656;SDS011;14279;50.010;8.260;2024-01-30T00:56:06;35.13;;;23.23;;
26656;SDS011;14279;50.010;8.260;2024-01-30T00:58:32;37.40;;;24.43;;
26656;SDS011;14279;50.010;8.260;2024-01-30T01:00:57;39.87;;;23.57;;
26656;SDS011;14279;50.010;8.260;2024-01-30T01:03:22;40.27;;;23.37;;
26656;SDS011;14279;50.010;8.260;2024-01-30T01:05:48;35.50;;;24.37;;
26656;SDS011;14279;50.010;8.260;2024-01-30T01:08:13;37.97;;;24.73;;
26656;SDS011;14279;50.010;8.260;2024-01-30T01:10:40;37.50;;;24.70;;
26656;SDS011;14279;50.010;8.260;2024-01-30T01:13:05;35.23;;;24.77;;
26656;SDS011;14279;50.010;8.260;2024-01-30T01:15:30;31.00;;;23.13;;
26656;SDS011;14279;50.010;8.260;2024-01-30T01:17:55;37.30;;;23.33;;
26656;SDS011;14279;50.010;8.260;2024-01-30T01:20:21;36.20;;;23.50;;
26656;SDS011;14279;50.010;8.260;2024-01-30T01:22:46;34.00;;;22.30;;
26656;SDS011;14279;50.010;8.260;2024-01-30T01:25:11;36.47;;;23.10;;
26656;SDS011;14279;50.010;8.260;2024-01-30T01:27:36;33.07;;;22.80;;
26656;SDS011;14279;50.010;8.260;2024-01-30T01:30:07;36.17;;;22.87;;
26656;SDS011;14279;50.010;8.260;2024-01-30T01:32:34;32.73;;;21.73;;
26656;SDS011;14279;50.010;8.260;2024-01-30T01:34:59;37.40;;;24.10;;
26656;SDS011;14279;50.010;8.260;2024-01-30T01:37:25;38.57;;;22.60;;
26656;SDS011;14279;50.010;8.260;2024-01-30T01:39:51;30.77;;;21.87;;
26656;SDS011;14279;50.010;8.260;2024-01-30T01:42:17;33.33;;;22.00;;
26656;SDS011;14279;50.010;8.260;2024-01-30T01:44:42;32.77;;;20.13;;
26656;SDS011;14279;50.010;8.260;2024-01-30T01:47:07;34.33;;;21.90;;
26656;SDS011;14279;50.010;8.260;2024-01-30T01:49:33;29.47;;;19.90;;
26656;SDS011;14279;50.010;8.260;2024-01-30T01:51:58;32.53;;;22.10;;
26656;SDS011;14279;50.010;8.260;2024-01-30T01:54:24;35.80;;;21.67;;
26656;SDS011;14279;50.010;8.260;2024-01-30T01:56:51;31.37;;;20.93;;
26656;SDS011;14279;50.010;8.260;2024-01-30T01:59:18;29.10;;;21.00;;
26656;SDS011;14279;50.010;8.260;2024-01-30T02:01:45;32.03;;;20.40;;
26656;SDS011;14279;50.010;8.260;2024-01-30T02:04:14;29.90;;;19.57;;
26656;SDS011;14279;50.010;8.260;2024-01-30T02:06:39;32.27;;;21.80;;
26656;SDS011;14279;50.010;8.260;2024-01-30T02:09:04;31.87;;;21.57;;
26656;SDS011;14279;50.010;8.260;2024-01-30T02:11:29;39.97;;;22.57;;
26656;SDS011;14279;50.010;8.260;2024-01-30T02:13:55;30.53;;;19.93;;
26656;SDS011;14279;50.010;8.260;2024-01-30T02:16:21;29.17;;;21.07;;
26656;SDS011;14279;50.010;8.260;2024-01-30T02:18:46;31.83;;;19.83;;
26656;SDS011;14279;50.010;8.260;2024-01-30T02:21:14;38.93;;;19.70;;
26656;SDS011;14279;50.010;8.260;2024-01-30T02:23:40;32.80;;;20.90;;
26656;SDS011;14279;50.010;8.260;2024-01-30T02:26:06;31.53;;;21.80;;
26656;SDS011;14279;50.010;8.260;2024-01-30T02:28:31;29.53;;;20.43;;
26656;SDS011;14279;50.010;8.260;2024-01-30T02:30:56;32.80;;;22.30;;
26656;SDS011;14279;50.010;8.260;2024-01-30T02:33:21;41.80;;;21.47;;
26656;SDS011;14279;50.010;8.260;2024-01-30T02:35:47;29.73;;;20.33;;
26656;SDS011;14279;50.010;8.260;2024-01-30T02:38:13;34.30;;;21.93;;
26656;SDS011;14279;50.010;8.260;2024-01-30T02:40:38;33.97;;;20.27;;
26656;SDS011;14279;50.010;8.260;2024-01-30T02:43:03;34.80;;;21.97;;
26656;SDS011;14279;50.010;8.260;2024-01-30T02:45:29;31.10;;;21.37;;
26656;SDS011;14279;50.010;8.260;2024-01-30T02:47:54;31.03;;;20.97;;
26656;SDS011;14279;50.010;8.260;2024-01-30T02:50:19;33.70;;;21.37;;
26656;SDS011;14279;50.010;8.260;2024-01-30T02:52:45;30.07;;;20.83;;
26656;SDS011;14279;50.010;8.260;2024-01-30T02:55:10;31.97;;;19.97;;
26656;SDS011;14279;50.010;8.260;2024-01-30T02:57:36;33.90;;;21.20;;
26656;SDS011;14279;50.010;8.260;2024-01-30T03:00:02;30.90;;;20.43;;
26656;SDS011;14279;50.010;8.260;2024-01-30T03:02:30;31.30;;;21.77;;
26656;SDS011;14279;50.010;8.260;2024-01-30T03:04:55;29.80;;;19.77;;
26656;SDS011;14279;50.010;8.260;2024-01-30T03:07:21;37.77;;;20.03;;
26656;SDS011;14279;50.010;8.260;2024-01-30T03:09:46;31.90;;;21.93;;
26656;SDS011;14279;50.010;8.260;2024-01-30T03:12:11;36.33;;;20.50;;
26656;SDS011;14279;50.010;8.260;2024-01-30T03:14:36;32.33;;;20.50;;
26656;SDS011;14279;50.010;8.260;2024-01-30T03:17:02;32.50;;;20.80;;
26656;SDS011;14279;50.010;8.260;2024-01-30T03:19:28;34.00;;;21.10;;
26656;SDS011;14279;50.010;8.260;2024-01-30T03:21:53;31.87;;;21.73;;
26656;SDS011;14279;50.010;8.260;2024-01-30T03:24:18;27.67;;;20.50;;
26656;SDS011;14279;50.010;8.260;2024-01-30T03:26:43;33.13;;;21.77;;
26656;SDS011;14279;50.010;8.260;2024-01-30T03:29:09;34.63;;;20.57;;
26656;SDS011;14279;50.010;8.260;2024-01-30T03:31:34;34.73;;;20.43;;
26656;SDS011;14279;50.010;8.260;2024-01-30T03:34:00;31.37;;;21.63;;
26656;SDS011;14279;50.010;8.260;2024-01-30T03:36:26;35.93;;;21.80;;
26656;SDS011;14279;50.010;8.260;2024-01-30T03:38:52;34.43;;;22.53;;
26656;SDS011;14279;50.010;8.260;2024-01-30T03:41:17;39.80;;;22.33;;
26656;SDS011;14279;50.010;8.260;2024-01-30T03:43:42;31.20;;;22.10;;
26656;SDS011;14279;50.010;8.260;2024-01-30T03:46:07;39.60;;;22.83;;
26656;SDS011;14279;50.010;8.260;2024-01-30T03:48:33;30.90;;;21.97;;
26656;SDS011;14279;50.010;8.260;2024-01-30T03:50:58;31.03;;;22.73;;
26656;SDS011;14279;50.010;8.260;2024-01-30T03:53:24;34.60;;;22.17;;
26656;SDS011;14279;50.010;8.260;2024-01-30T03:55:49;43.67;;;24.37;;
26656;SDS011;14279;50.010;8.260;2024-01-30T03:58:14;32.03;;;21.70;;
26656;SDS011;14279;50.010;8.260;2024-01-30T04:00:40;37.83;;;20.50;;
26656;SDS011;14279;50.010;8.260;2024-01-30T04:03:06;36.30;;;23.50;;
26656;SDS011;14279;50.010;8.260;2024-01-30T04:05:31;31.33;;;21.90;;
26656;SDS011;14279;50.010;8.260;2024-01-30T04:07:57;37.27;;;23.13;;
26656;SDS011;14279;50.010;8.260;2024-01-30T04:10:23;35.50;;;20.27;;
26656;SDS011;14279;50.010;8.260;2024-01-30T04:12:49;26.77;;;20.40;;
26656;SDS011;14279;50.010;8.260;2024-01-30T04:15:15;30.77;;;21.87;;
26656;SDS011;14279;50.010;8.260;2024-01-30T04:17:41;34.23;;;21.70;;
26656;SDS011;14279;50.010;8.260;2024-01-30T04:20:06;30.37;;;21.10;;
26656;SDS011;14279;50.010;8.260;2024-01-30T04:22:32;27.87;;;20.67;;
26656;SDS011;14279;50.010;8.260;2024-01-30T04:24:57;28.83;;;21.10;;
26656;SDS011;14279;50.010;8.260;2024-01-30T04:27:22;25.87;;;20.10;;
26656;SDS011;14279;50.010;8.260;2024-01-30T04:29:47;27.53;;;20.20;;
26656;SDS011;14279;50.010;8.260;2024-01-30T04:32:13;29.60;;;20.50;;
26656;SDS011;14279;50.010;8.260;2024-01-30T04:34:38;29.80;;;21.03;;
26656;SDS011;14279;50.010;8.260;2024-01-30T04:37:04;24.20;;;19.30;;
26656;SDS011;14279;50.010;8.260;2024-01-30T04:39:29;25.17;;;18.40;;
26656;SDS011;14279;50.010;8.260;2024-01-30T04:41:55;26.97;;;19.20;;
26656;SDS011;14279;50.010;8.260;2024-01-30T04:44:20;27.20;;;19.93;;
26656;SDS011;14279;50.010;8.260;2024-01-30T04:46:45;30.20;;;19.20;;
26656;SDS011;14279;50.010;8.260;2024-01-30T04:49:11;27.83;;;20.23;;
26656;SDS011;14279;50.010;8.260;2024-01-30T04:51:36;25.57;;;19.53;;
26656;SDS011;14279;50.010;8.260;2024-01-30T04:54:02;31.50;;;21.10;;
26656;SDS011;14279;50.010;8.260;2024-01-30T04:56:27;34.63;;;22.50;;
26656;SDS011;14279;50.010;8.260;2024-01-30T04:58:52;36.57;;;22.80;;
26656;SDS011;14279;50.010;8.260;2024-01-30T05:01:17;30.03;;;22.20;;
26656;SDS011;14279;50.010;8.260;2024-01-30T05:03:43;31.53;;;22.17;;
26656;SDS011;14279;50.010;8.260;2024-01-30T05:06:08;28.10;;;19.93;;
26656;SDS011;14279;50.010;8.260;2024-01-30T05:08:34;32.60;;;21.93;;
26656;SDS011;14279;50.010;8.260;2024-01-30T05:11:01;34.50;;;23.40;;
26656;SDS011;14279;50.010;8.260;2024-01-30T05:13:28;36.90;;;21.80;;
26656;SDS011;14279;50.010;8.260;2024-01-30T05:15:55;33.03;;;22.03;;
26656;SDS011;14279;50.010;8.260;2024-01-30T05:18:20;34.03;;;22.17;;
26656;SDS011;14279;50.010;8.260;2024-01-30T05:20:45;30.20;;;22.00;;
26656;SDS011;14279;50.010;8.260;2024-01-30T05:23:10;28.90;;;20.60;;
26656;SDS011;14279;50.010;8.260;2024-01-30T05:25:36;30.17;;;20.43;;
26656;SDS011;14279;50.010;8.260;2024-01-30T05:28:01;31.70;;;21.97;;
26656;SDS011;14279;50.010;8.260;2024-01-30T05:30:26;29.23;;;20.10;;
26656;SDS011;14279;50.010;8.260;2024-01-30T05:32:51;30.90;;;22.30;;
26656;SDS011;14279;50.010;8.260;2024-01-30T05:35:17;36.17;;;23.20;;
26656;SDS011;14279;50.010;8.260;2024-01-30T05:37:43;25.93;;;21.07;;
26656;SDS011;14279;50.010;8.260;2024-01-30T05:40:08;35.00;;;22.00;;
26656;SDS011;14279;50.010;8.260;2024-01-30T05:42:33;33.53;;;20.97;;
26656;SDS011;14279;50.010;8.260;2024-01-30T05:44:59;27.03;;;19.83;;
26656;SDS011;14279;50.010;8.260;2024-01-30T05:47:24;33.20;;;20.07;;
26656;SDS011;14279;50.010;8.260;2024-01-30T05:49:49;30.50;;;21.50;;
26656;SDS011;14279;50.010;8.260;2024-01-30T05:52:15;29.97;;;20.57;;
26656;SDS011;14279;50.010;8.260;2024-01-30T05:54:41;31.37;;;21.63;;
26656;SDS011;14279;50.010;8.260;2024-01-30T05:57:06;33.00;;;23.00;;
26656;SDS011;14279;50.010;8.260;2024-01-30T05:59:32;32.93;;;21.97;;
26656;SDS011;14279;50.010;8.260;2024-01-30T06:01:57;28.83;;;20.27;;
26656;SDS011;14279;50.010;8.260;2024-01-30T06:04:22;35.00;;;21.77;;
26656;SDS011;14279;50.010;8.260;2024-01-30T06:06:48;32.30;;;21.10;;
26656;SDS011;14279;50.010;8.260;2024-01-30T06:09:13;33.33;;;21.67;;
26656;SDS011;14279;50.010;8.260;2024-01-30T06:11:39;33.47;;;23.10;;
26656;SDS011;14279;50.010;8.260;2024-01-30T06:14:04;25.33;;;19.30;;
26656;SDS011;14279;50.010;8.260;2024-01-30T06:16:29;34.90;;;22.17;;
26656;SDS011;14279;50.010;8.260;2024-01-30T06:18:55;30.80;;;21.87;;
26656;SDS011;14279;50.010;8.260;2024-01-30T06:21:21;29.77;;;19.73;;
26656;SDS011;14279;50.010;8.260;2024-01-30T06:23:46;31.93;;;21.40;;
26656;SDS011;14279;50.010;8.260;2024-01-30T06:26:12;29.70;;;20.97;;
26656;SDS011;14279;50.010;8.260;2024-01-30T06:28:37;31.60;;;22.20;;
26656;SDS011;14279;50.010;8.260;2024-01-30T06:31:02;33.03;;;22.00;;
26656;SDS011;14279;50.010;8.260;2024-01-30T06:33:28;29.07;;;20.63;;
26656;SDS011;14279;50.010;8.260;2024-01-30T06:35:53;30.03;;;20.60;;
26656;SDS011;14279;50.010;8.260;2024-01-30T06:38:18;28.80;;;20.87;;
26656;SDS011;14279;50.010;8.260;2024-01-30T06:40:44;28.13;;;19.77;;
26656;SDS011;14279;50.010;8.260;2024-01-30T06:43:09;26.27;;;20.27;;
26656;SDS011;14279;50.010;8.260;2024-01-30T06:45:34;30.53;;;20.43;;
26656;SDS011;14279;50.010;8.260;2024-01-30T06:48:00;25.63;;;18.10;;
26656;SDS011;14279;50.010;8.260;2024-01-30T06:50:27;28.30;;;19.10;;
26656;SDS011;14279;50.010;8.260;2024-01-30T06:52:55;38.23;;;22.07;;
26656;SDS011;14279;50.010;8.260;2024-01-30T06:55:20;37.23;;;22.77;;
26656;SDS011;14279;50.010;8.260;2024-01-30T06:57:46;47.50;;;24.70;;
26656;SDS011;14279;50.010;8.260;2024-01-30T07:00:11;48.40;;;26.80;;
26656;SDS011;14279;50.010;8.260;2024-01-30T07:02:37;44.23;;;25.73;;
26656;SDS011;14279;50.010;8.260;2024-01-30T07:05:02;54.67;;;27.60;;
26656;SDS011;14279;50.010;8.260;2024-01-30T07:07:28;53.23;;;27.40;;
26656;SDS011;14279;50.010;8.260;2024-01-30T07:09:53;49.73;;;27.23;;
26656;SDS011;14279;50.010;8.260;2024-01-30T07:12:21;45.30;;;25.87;;
26656;SDS011;14279;50.010;8.260;2024-01-30T07:14:51;47.50;;;27.40;;
26656;SDS011;14279;50.010;8.260;2024-01-30T07:17:16;63.73;;;28.40;;
26656;SDS011;14279;50.010;8.260;2024-01-30T07:19:41;47.90;;;26.60;;
26656;SDS011;14279;50.010;8.260;2024-01-30T07:22:07;52.27;;;28.47;;
26656;SDS011;14279;50.010;8.260;2024-01-30T07:24:33;50.60;;;27.87;;
26656;SDS011;14279;50.010;8.260;2024-01-30T07:26:58;53.17;;;29.40;;
26656;SDS011;14279;50.010;8.260;2024-01-30T07:29:23;49.80;;;26.70;;
26656;SDS011;14279;50.010;8.260;2024-01-30T07:31:48;60.10;;;30.03;;
26656;SDS011;14279;50.010;8.260;2024-01-30T07:34:14;65.93;;;30.50;;
26656;SDS011;14279;50.010;8.260;2024-01-30T07:36:39;72.70;;;28.63;;
26656;SDS011;14279;50.010;8.260;2024-01-30T07:39:04;62.83;;;32.33;;
26656;SDS011;14279;50.010;8.260;2024-01-30T07:41:29;50.07;;;29.33;;
26656;SDS011;14279;50.010;8.260;2024-01-30T07:43:55;45.10;;;26.63;;
26656;SDS011;14279;50.010;8.260;2024-01-30T07:46:20;54.80;;;25.17;;
26656;SDS011;14279;50.010;8.260;2024-01-30T07:48:45;51.93;;;29.30;;
26656;SDS011;14279;50.010;8.260;2024-01-30T07:51:10;41.70;;;26.58;;
26656;SDS011;14279;50.010;8.260;2024-01-30T07:53:36;37.53;;;22.17;;
26656;SDS011;14279;50.010;8.260;2024-01-30T07:56:01;37.90;;;24.23;;
26656;SDS011;14279;50.010;8.260;2024-01-30T07:58:27;37.37;;;24.57;;
26656;SDS011;14279;50.010;8.260;2024-01-30T08:00:53;29.53;;;21.70;;
26656;SDS011;14279;50.010;8.260;2024-01-30T08:03:18;35.40;;;22.60;;
26656;SDS011;14279;50.010;8.260;2024-01-30T08:05:44;34.30;;;23.00;;
26656;SDS011;14279;50.010;8.260;2024-01-30T08:08:09;33.90;;;22.80;;
26656;SDS011;14279;50.010;8.260;2024-01-30T08:10:35;34.03;;;21.73;;
26656;SDS011;14279;50.010;8.260;2024-01-30T08:13:00;33.90;;;22.20;;
26656;SDS011;14279;50.010;8.260;2024-01-30T08:15:26;31.53;;;21.90;;
26656;SDS011;14279;50.010;8.260;2024-01-30T08:17:51;30.00;;;21.20;;
26656;SDS011;14279;50.010;8.260;2024-01-30T08:20:21;27.73;;;19.07;;
26656;SDS011;14279;50.010;8.260;2024-01-30T08:22:47;28.93;;;20.10;;
26656;SDS011;14279;50.010;8.260;2024-01-30T08:25:12;30.60;;;20.50;;
26656;SDS011;14279;50.010;8.260;2024-01-30T08:27:37;29.47;;;19.50;;
26656;SDS011;14279;50.010;8.260;2024-01-30T08:30:04;28.87;;;20.20;;
26656;SDS011;14279;50.010;8.260;2024-01-30T08:32:31;33.50;;;20.10;;
26656;SDS011;14279;50.010;8.260;2024-01-30T08:34:56;33.90;;;19.17;;
26656;SDS011;14279;50.010;8.260;2024-01-30T08:37:21;31.60;;;20.37;;
26656;SDS011;14279;50.010;8.260;2024-01-30T08:39:47;29.70;;;19.00;;
26656;SDS011;14279;50.010;8.260;2024-01-30T08:42:12;30.83;;;20.43;;
26656;SDS011;14279;50.010;8.260;2024-01-30T08:44:37;29.00;;;19.20;;
26656;SDS011;14279;50.010;8.260;2024-01-30T08:47:03;30.83;;;20.20;;
26656;SDS011;14279;50.010;8.260;2024-01-30T08:49:29;33.63;;;20.00;;
26656;SDS011;14279;50.010;8.260;2024-01-30T08:51:54;29.67;;;19.63;;
26656;SDS011;14279;50.010;8.260;2024-01-30T08:54:19;28.43;;;19.50;;
26656;SDS011;14279;50.010;8.260;2024-01-30T08:56:45;34.13;;;20.23;;
26656;SDS011;14279;50.010;8.260;2024-01-30T08:59:10;34.50;;;22.50;;
26656;SDS011;14279;50.010;8.260;2024-01-30T09:01:36;29.97;;;21.10;;
26656;SDS011;14279;50.010;8.260;2024-01-30T09:04:01;36.23;;;21.37;;
26656;SDS011;14279;50.010;8.260;2024-01-30T09:06:26;34.63;;;19.10;;
26656;SDS011;14279;50.010;8.260;2024-01-30T09:08:53;25.70;;;19.40;;
26656;SDS011;14279;50.010;8.260;2024-01-30T09:11:18;32.60;;;19.13;;
26656;SDS011;14279;50.010;8.260;2024-01-30T09:13:44;31.40;;;20.13;;
26656;SDS011;14279;50.010;8.260;2024-01-30T09:16:09;29.47;;;19.70;;
26656;SDS011;14279;50.010;8.260;2024-01-30T09:18:34;33.03;;;20.57;;
26656;SDS011;14279;50.010;8.260;2024-01-30T09:21:00;26.33;;;18.93;;
26656;SDS011;14279;50.010;8.260;2024-01-30T09:23:26;29.03;;;19.47;;
26656;SDS011;14279;50.010;8.260;2024-01-30T09:25:52;34.60;;;21.43;;
26656;SDS011;14279;50.010;8.260;2024-01-30T09:28:17;27.70;;;19.83;;
26656;SDS011;14279;50.010;8.260;2024-01-30T09:30:43;34.10;;;20.63;;
26656;SDS011;14279;50.010;8.260;2024-01-30T09:33:08;30.57;;;19.90;;
26656;SDS011;14279;50.010;8.260;2024-01-30T09:35:33;27.00;;;20.17;;
26656;SDS011;14279;50.010;8.260;2024-01-30T09:37:59;30.83;;;18.47;;
26656;SDS011;14279;50.010;8.260;2024-01-30T09:40:24;26.07;;;18.23;;
26656;SDS011;14279;50.010;8.260;2024-01-30T09:42:50;27.10;;;18.67;;
26656;SDS011;14279;50.010;8.260;2024-01-30T09:45:17;32.23;;;18.97;;
26656;SDS011;14279;50.010;8.260;2024-01-30T09:47:44;26.10;;;18.87;;
26656;SDS011;14279;50.010;8.260;2024-01-30T09:50:11;28.43;;;18.97;;
26656;SDS011;14279;50.010;8.260;2024-01-30T09:52:37;31.47;;;19.70;;
26656;SDS011;14279;50.010;8.260;2024-01-30T09:55:03;34.00;;;21.00;;
26656;SDS011;14279;50.010;8.260;2024-01-30T09:57:29;32.63;;;20.37;;
26656;SDS011;14279;50.010;8.260;2024-01-30T09:59:54;29.77;;;20.37;;
26656;SDS011;14279;50.010;8.260;2024-01-30T10:02:20;30.23;;;20.30;;
26656;SDS011;14279;50.010;8.260;2024-01-30T10:04:52;33.53;;;21.30;;
26656;SDS011;14279;50.010;8.260;2024-01-30T10:07:17;31.23;;;20.30;;
26656;SDS011;14279;50.010;8.260;2024-01-30T10:09:44;30.80;;;20.70;;
26656;SDS011;14279;50.010;8.260;2024-01-30T10:12:09;32.43;;;20.73;;
26656;SDS011;14279;50.010;8.260;2024-01-30T10:14:38;33.37;;;19.93;;
26656;SDS011;14279;50.010;8.260;2024-01-30T10:17:04;32.80;;;19.93;;
26656;SDS011;14279;50.010;8.260;2024-01-30T10:19:30;25.13;;;18.10;;
26656;SDS011;14279;50.010;8.260;2024-01-30T10:21:56;30.50;;;20.20;;
26656;SDS011;14279;50.010;8.260;2024-01-30T10:24:24;31.43;;;21.60;;
26656;SDS011;14279;50.010;8.260;2024-01-30T10:26:50;31.37;;;19.93;;
26656;SDS011;14279;50.010;8.260;2024-01-30T10:29:16;31.57;;;19.73;;
26656;SDS011;14279;50.010;8.260;2024-01-30T10:31:42;33.63;;;21.87;;
26656;SDS011;14279;50.010;8.260;2024-01-30T10:34:07;36.47;;;21.73;;
26656;SDS011;14279;50.010;8.260;2024-01-30T10:36:32;32.10;;;21.07;;
26656;SDS011;14279;50.010;8.260;2024-01-30T10:39:05;33.43;;;20.93;;
26656;SDS011;14279;50.010;8.260;2024-01-30T10:41:31;32.13;;;21.33;;
26656;SDS011;14279;50.010;8.260;2024-01-30T10:44:08;34.57;;;21.20;;
26656;SDS011;14279;50.010;8.260;2024-01-30T10:46:34;32.83;;;20.90;;
26656;SDS011;14279;50.010;8.260;2024-01-30T10:49:02;34.00;;;21.03;;
26656;SDS011;14279;50.010;8.260;2024-01-30T10:51:29;40.13;;;22.00;;
26656;SDS011;14279;50.010;8.260;2024-01-30T10:53:56;33.90;;;20.47;;
26656;SDS011;14279;50.010;8.260;2024-01-30T10:56:21;32.73;;;20.83;;
26656;SDS011;14279;50.010;8.260;2024-01-30T10:58:49;31.83;;;19.97;;
26656;SDS011;14279;50.010;8.260;2024-01-30T11:01:16;33.13;;;20.37;;
26656;SDS011;14279;50.010;8.260;2024-01-30T11:03:44;29.97;;;19.20;;
26656;SDS011;14279;50.010;8.260;2024-01-30T11:06:10;31.23;;;21.27;;
26656;SDS011;14279;50.010;8.260;2024-01-30T11:08:37;30.63;;;19.87;;
26656;SDS011;14279;50.010;8.260;2024-01-30T11:11:02;31.20;;;19.60;;
26656;SDS011;14279;50.010;8.260;2024-01-30T11:13:34;33.63;;;20.03;;
26656;SDS011;14279;50.010;8.260;2024-01-30T11:16:03;28.03;;;19.67;;
26656;SDS011;14279;50.010;8.260;2024-01-30T11:18:30;34.87;;;20.80;;
26656;SDS011;14279;50.010;8.260;2024-01-30T11:20:56;33.37;;;20.90;;
26656;SDS011;14279;50.010;8.260;2024-01-30T11:23:23;31.40;;;20.73;;
26656;SDS011;14279;50.010;8.260;2024-01-30T11:25:48;40.03;;;20.13;;
26656;SDS011;14279;50.010;8.260;2024-01-30T11:28:14;36.33;;;23.07;;
26656;SDS011;14279;50.010;8.260;2024-01-30T11:30:41;34.50;;;22.00;;
26656;SDS011;14279;50.010;8.260;2024-01-30T11:33:07;36.80;;;21.70;;
26656;SDS011;14279;50.010;8.260;2024-01-30T11:38:10;36.70;;;20.70;;
26656;SDS011;14279;50.010;8.260;2024-01-30T11:40:38;34.73;;;21.07;;
26656;SDS011;14279;50.010;8.260;2024-01-30T11:43:05;32.97;;;22.07;;
26656;SDS011;14279;50.010;8.260;2024-01-30T11:45:32;36.70;;;21.30;;
26656;SDS011;14279;50.010;8.260;2024-01-30T11:47:58;34.50;;;22.27;;
26656;SDS011;14279;50.010;8.260;2024-01-30T11:50:31;38.97;;;22.40;;
26656;SDS011;14279;50.010;8.260;2024-01-30T11:52:58;39.27;;;22.30;;
26656;SDS011;14279;50.010;8.260;2024-01-30T11:55:29;33.53;;;22.97;;
26656;SDS011;14279;50.010;8.260;2024-01-30T11:57:57;33.30;;;22.60;;
26656;SDS011;14279;50.010;8.260;2024-01-30T12:00:23;33.23;;;22.67;;
26656;SDS011;14279;50.010;8.260;2024-01-30T12:02:52;35.87;;;24.43;;
26656;SDS011;14279;50.010;8.260;2024-01-30T12:05:21;34.27;;;23.40;;
26656;SDS011;14279;50.010;8.260;2024-01-30T12:07:48;35.30;;;23.50;;
26656;SDS011;14279;50.010;8.260;2024-01-30T12:10:14;37.47;;;24.63;;
26656;SDS011;14279;50.010;8.260;2024-01-30T12:12:39;33.50;;;22.90;;
26656;SDS011;14279;50.010;8.260;2024-01-30T12:15:07;36.53;;;24.53;;
26656;SDS011;14279;50.010;8.260;2024-01-30T12:17:33;38.50;;;24.63;;
26656;SDS011;14279;50.010;8.260;2024-01-30T12:20:06;36.37;;;22.87;;
26656;SDS011;14279;50.010;8.260;2024-01-30T12:25:12;36.23;;;23.27;;
26656;SDS011;14279;50.010;8.260;2024-01-30T12:27:41;35.17;;;23.37;;
26656;SDS011;14279;50.010;8.260;2024-01-30T12:30:09;42.47;;;22.53;;
26656;SDS011;14279;50.010;8.260;2024-01-30T12:32:40;39.80;;;23.20;;
26656;SDS011;14279;50.010;8.260;2024-01-30T12:35:12;40.50;;;23.30;;
26656;SDS011;14279;50.010;8.260;2024-01-30T12:37:45;39.00;;;22.50;;
26656;SDS011;14279;50.010;8.260;2024-01-30T12:40:16;36.40;;;22.97;;
26656;SDS011;14279;50.010;8.260;2024-01-30T12:42:46;35.30;;;21.47;;
26656;SDS011;14279;50.010;8.260;2024-01-30T12:45:16;31.13;;;22.10;;
26656;SDS011;14279;50.010;8.260;2024-01-30T12:47:45;41.27;;;22.23;;
26656;SDS011;14279;50.010;8.260;2024-01-30T12:50:10;31.20;;;22.60;;
26656;SDS011;14279;50.010;8.260;2024-01-30T12:52:40;28.97;;;19.03;;
26656;SDS011;14279;50.010;8.260;2024-01-30T12:55:05;29.50;;;21.10;;
26656;SDS011;14279;50.010;8.260;2024-01-30T12:57:31;28.07;;;18.63;;
26656;SDS011;14279;50.010;8.260;2024-01-30T13:00:15;28.40;;;19.90;;
26656;SDS011;14279;50.010;8.260;2024-01-30T13:02:50;26.73;;;18.60;;
26656;SDS011;14279;50.010;8.260;2024-01-30T13:05:19;31.80;;;20.30;;
26656;SDS011;14279;50.010;8.260;2024-01-30T13:07:57;30.13;;;21.20;;
26656;SDS011;14279;50.010;8.260;2024-01-30T13:10:23;36.30;;;21.23;;
26656;SDS011;14279;50.010;8.260;2024-01-30T13:12:54;32.67;;;21.40;;
26656;SDS011;14279;50.010;8.260;2024-01-30T13:15:19;32.73;;;21.13;;
26656;SDS011;14279;50.010;8.260;2024-01-30T13:17:46;29.70;;;20.23;;
26656;SDS011;14279;50.010;8.260;2024-01-30T13:20:14;29.90;;;19.43;;
26656;SDS011;14279;50.010;8.260;2024-01-30T13:22:45;35.30;;;20.40;;
26656;SDS011;14279;50.010;8.260;2024-01-30T13:25:10;33.97;;;21.43;;
26656;SDS011;14279;50.010;8.260;2024-01-30T13:27:39;31.30;;;22.10;;
26656;SDS011;14279;50.010;8.260;2024-01-30T13:30:06;33.50;;;22.93;;
26656;SDS011;14279;50.010;8.260;2024-01-30T13:32:33;33.57;;;22.47;;
26656;SDS011;14279;50.010;8.260;2024-01-30T13:35:03;34.30;;;24.40;;
26656;SDS011;14279;50.010;8.260;2024-01-30T13:37:29;42.30;;;26.00;;
26656;SDS011;14279;50.010;8.260;2024-01-30T13:39:54;34.70;;;24.93;;
26656;SDS011;14279;50.010;8.260;2024-01-30T13:42:20;32.60;;;21.70;;
26656;SDS011;14279;50.010;8.260;2024-01-30T13:44:45;30.80;;;19.80;;
26656;SDS011;14279;50.010;8.260;2024-01-30T13:47:11;34.43;;;23.10;;
26656;SDS011;14279;50.010;8.260;2024-01-30T13:49:40;31.20;;;20.97;;
26656;SDS011;14279;50.010;8.260;2024-01-30T13:52:07;32.97;;;21.73;;
26656;SDS011;14279;50.010;8.260;2024-01-30T13:54:35;34.23;;;23.07;;
26656;SDS011;14279;50.010;8.260;2024-01-30T13:57:00;33.20;;;22.80;;
26656;SDS011;14279;50.010;8.260;2024-01-30T13:59:25;35.83;;;23.10;;
26656;SDS011;14279;50.010;8.260;2024-01-30T14:01:53;35.03;;;25.50;;
26656;SDS011;14279;50.010;8.260;2024-01-30T14:04:19;41.00;;;26.33;;
26656;SDS011;14279;50.010;8.260;2024-01-30T14:06:44;35.80;;;24.17;;
26656;SDS011;14279;50.010;8.260;2024-01-30T14:09:23;35.67;;;24.80;;
26656;SDS011;14279;50.010;8.260;2024-01-30T14:11:57;33.03;;;21.97;;
26656;SDS011;14279;50.010;8.260;2024-01-30T14:17:24;32.57;;;22.43;;
26656;SDS011;14279;50.010;8.260;2024-01-30T14:19:53;31.87;;;22.20;;
26656;SDS011;14279;50.010;8.260;2024-01-30T14:22:18;34.57;;;21.80;;